Medemborg — PJAG — position and weather

sailwx.info

Track history (hours):
 
Tides and Currents Weather Stations Pressure Air Temp Water Temp Dewpoint Dewpoint Depression Visibility Wind Speed Wind Dir Waves Ship Positions

Medemborg

Last reported at 2014-Dec-21 10:32 UTC. Time now 2014-Dec-21 20:51 UTC.
Position N 54°11' E 005°03'.

Length 135 m; draft 7.1 m.

Type: Cargo ship. MMSI: 306581000.

Date/timePositionNaut miles runAvg speedWind from/ knotsBaromVisibWave heightAir tempDewpointWater temp
2014-Dec-21 10:32N 54°11' E 005°03'1111.0
2014-Dec-21 09:33N 54°01' E 004°56'1111.0
2014-Dec-21 08:32N 53°50' E 004°54'1611.2
2014-Dec-21 07:04N 53°34' E 004°49'611.3
2014-Dec-21 06:33N 53°29' E 004°45'1211.7
2014-Dec-21 05:33N 53°18' E 004°37'1412.2
2014-Dec-21 04:22N 53°05' E 004°27'1312.5
2014-Dec-21 03:17N 52°53' E 004°17'1212.4
2014-Dec-21 02:19N 52°44' E 004°04'1012.8
2014-Dec-21 01:33N 52°37' E 003°53'1312.7
2014-Dec-21 00:33N 52°28' E 003°38'1212.1
2014-Dec-20 23:33N 52°19' E 003°24'1111.2
2014-Dec-20 22:33N 52°10' E 003°12'1010.3
2014-Dec-20 21:33N 52°03' E 003°01'10 9.7
2014-Dec-20 20:33N 51°56' E 002°51'29 9.5
2014-Dec-20 17:33N 51°34' E 002°21'1110.5
2014-Dec-20 16:30N 51°24' E 002°11'1111.2
2014-Dec-20 15:33N 51°15' E 002°04'1211.8
2014-Dec-20 14:33N 51°08' E 001°48'1212.5
2014-Dec-20 13:33N 50°59' E 001°36'287 7.5
2014-Dec-18 23:26N 52°07' W 005°52'1011.6
2014-Dec-18 22:33N 52°17' W 005°52'1212.4
2014-Dec-18 21:33N 52°29' W 005°51'  
2014-Dec-14 12:18N 52°35' W 005°53'1013.6
2014-Dec-14 11:34N 52°25' W 005°56'1413.7
2014-Dec-14 10:34N 52°12' W 005°59'1212.3
2014-Dec-14 09:33N 52°03' W 006°14'1313.0
2014-Dec-14 08:33N 52°02' W 006°35'1312.6
2014-Dec-14 07:33N 52°05' W 006°54'4 4.2
2014-Dec-14 06:34N 52°09' W 006°58'0 0.0
2014-Dec-14 05:34N 52°09' W 006°58'0 0.0
2014-Dec-14 04:34N 52°09' W 006°58'0 0.0
2014-Dec-14 03:33N 52°09' W 006°58'0 0.0
2014-Dec-14 02:33N 52°09' W 006°58'0 0.0
2014-Dec-14 01:33N 52°09' W 006°58'0 0.0
2014-Dec-14 00:34N 52°09' W 006°58'0 0.0
2014-Dec-13 23:33N 52°09' W 006°58'0 0.0
2014-Dec-13 22:34N 52°09' W 006°58'4 4.2
2014-Dec-13 21:33N 52°13' W 006°56'5 4.5
2014-Dec-13 20:32N 52°16' W 007°02'0 0.0
2014-Dec-13 19:32N 52°16' W 007°02'0 0.0
2014-Dec-13 18:32N 52°16' W 007°02'0 0.0
2014-Dec-13 17:32N 52°16' W 007°02'0 0.0
2014-Dec-13 16:32N 52°16' W 007°02'0 0.0
2014-Dec-13 15:32N 52°16' W 007°02'0 0.0
2014-Dec-13 14:32N 52°16' W 007°02'0 0.0
2014-Dec-13 13:32N 52°16' W 007°02'0 0.0
2014-Dec-13 12:32N 52°16' W 007°02'0 0.0
2014-Dec-13 11:32N 52°16' W 007°02'0 0.0
2014-Dec-13 10:32N 52°16' W 007°02'0 0.0
2014-Dec-13 09:32N 52°16' W 007°02'0 0.0
2014-Dec-13 08:32N 52°16' W 007°02'0 0.0
2014-Dec-13 07:32N 52°16' W 007°02'0 0.0
2014-Dec-13 06:32N 52°16' W 007°02'0 0.0
2014-Dec-13 05:32N 52°16' W 007°02'0 0.0
2014-Dec-13 04:32N 52°16' W 007°02'0 0.0
2014-Dec-13 03:29N 52°16' W 007°02'0 0.0
2014-Dec-13 02:32N 52°16' W 007°02'0 0.0
2014-Dec-13 01:32N 52°16' W 007°02'0 0.0
2014-Dec-13 00:32N 52°16' W 007°02'0 0.0
2014-Dec-12 23:32N 52°16' W 007°02'0 0.0
2014-Dec-12 22:32N 52°16' W 007°02'0 0.0
2014-Dec-12 21:32N 52°16' W 007°02'0 0.0
2014-Dec-12 20:32N 52°16' W 007°02'0 0.0
2014-Dec-12 19:32N 52°16' W 007°02'0 0.0
2014-Dec-12 18:32N 52°16' W 007°02'0 0.0
2014-Dec-12 17:32N 52°16' W 007°02'0 0.0
2014-Dec-12 16:32N 52°16' W 007°02'0 0.0
2014-Dec-12 15:32N 52°16' W 007°02'0 0.0
2014-Dec-12 14:32N 52°16' W 007°02'0 0.0
2014-Dec-12 13:34N 52°16' W 007°02'3 2.7
2014-Dec-12 12:34N 52°15' W 006°58'5 5.5
2014-Dec-12 11:33N 52°09' W 006°58'0 0.0
2014-Dec-12 10:33N 52°09' W 006°58'0 0.4
2014-Dec-12 09:33N 52°09' W 006°58'1111.1
2014-Dec-12 08:33N 51°58' W 007°02'1212.1
2014-Dec-12 07:33N 51°46' W 007°06'1010.5
2014-Dec-12 06:33N 51°36' W 007°09'  
Track history (hours):
 
Tides and Currents Weather Stations Pressure Air Temp Water Temp Dewpoint Dewpoint Depression Visibility Wind Speed Wind Dir Waves Ship Positions

Medemborg

Last reported at 2014-Dec-21 10:32 UTC. Time now 2014-Dec-21 20:51 UTC.
Position N 54°11' E 005°03'.

Length 135 m; draft 7.1 m.

Type: Cargo ship. MMSI: 306581000.

Date/timePositionNaut miles runAvg speedWind from/ knotsBaromVisibWave heightAir tempDewpointWater temp
2014-Dec-21 10:32N 54°11' E 005°03'1111.0
2014-Dec-21 09:33N 54°01' E 004°56'1111.0
2014-Dec-21 08:32N 53°50' E 004°54'1611.2
2014-Dec-21 07:04N 53°34' E 004°49'611.3
2014-Dec-21 06:33N 53°29' E 004°45'1211.7
2014-Dec-21 05:33N 53°18' E 004°37'1412.2
2014-Dec-21 04:22N 53°05' E 004°27'1312.5
2014-Dec-21 03:17N 52°53' E 004°17'1212.4
2014-Dec-21 02:19N 52°44' E 004°04'1012.8
2014-Dec-21 01:33N 52°37' E 003°53'1312.7
2014-Dec-21 00:33N 52°28' E 003°38'1212.1
2014-Dec-20 23:33N 52°19' E 003°24'1111.2
2014-Dec-20 22:33N 52°10' E 003°12'1010.3
2014-Dec-20 21:33N 52°03' E 003°01'10 9.7
2014-Dec-20 20:33N 51°56' E 002°51'29 9.5
2014-Dec-20 17:33N 51°34' E 002°21'1110.5
2014-Dec-20 16:30N 51°24' E 002°11'1111.2
2014-Dec-20 15:33N 51°15' E 002°04'1211.8
2014-Dec-20 14:33N 51°08' E 001°48'1212.5
2014-Dec-20 13:33N 50°59' E 001°36'287 7.5
2014-Dec-18 23:26N 52°07' W 005°52'1011.6
2014-Dec-18 22:33N 52°17' W 005°52'1212.4
2014-Dec-18 21:33N 52°29' W 005°51'  
2014-Dec-14 12:18N 52°35' W 005°53'1013.6
2014-Dec-14 11:34N 52°25' W 005°56'1413.7
2014-Dec-14 10:34N 52°12' W 005°59'1212.3
2014-Dec-14 09:33N 52°03' W 006°14'1313.0
2014-Dec-14 08:33N 52°02' W 006°35'1312.6
2014-Dec-14 07:33N 52°05' W 006°54'4 4.2
2014-Dec-14 06:34N 52°09' W 006°58'0 0.0
2014-Dec-14 05:34N 52°09' W 006°58'0 0.0
2014-Dec-14 04:34N 52°09' W 006°58'0 0.0
2014-Dec-14 03:33N 52°09' W 006°58'0 0.0
2014-Dec-14 02:33N 52°09' W 006°58'0 0.0
2014-Dec-14 01:33N 52°09' W 006°58'0 0.0
2014-Dec-14 00:34N 52°09' W 006°58'0 0.0
2014-Dec-13 23:33N 52°09' W 006°58'0 0.0
2014-Dec-13 22:34N 52°09' W 006°58'4 4.2
2014-Dec-13 21:33N 52°13' W 006°56'5 4.5
2014-Dec-13 20:32N 52°16' W 007°02'0 0.0
2014-Dec-13 19:32N 52°16' W 007°02'0 0.0
2014-Dec-13 18:32N 52°16' W 007°02'0 0.0
2014-Dec-13 17:32N 52°16' W 007°02'0 0.0
2014-Dec-13 16:32N 52°16' W 007°02'0 0.0
2014-Dec-13 15:32N 52°16' W 007°02'0 0.0
2014-Dec-13 14:32N 52°16' W 007°02'0 0.0
2014-Dec-13 13:32N 52°16' W 007°02'0 0.0
2014-Dec-13 12:32N 52°16' W 007°02'0 0.0
2014-Dec-13 11:32N 52°16' W 007°02'0 0.0
2014-Dec-13 10:32N 52°16' W 007°02'0 0.0
2014-Dec-13 09:32N 52°16' W 007°02'0 0.0
2014-Dec-13 08:32N 52°16' W 007°02'0 0.0
2014-Dec-13 07:32N 52°16' W 007°02'0 0.0
2014-Dec-13 06:32N 52°16' W 007°02'0 0.0
2014-Dec-13 05:32N 52°16' W 007°02'0 0.0
2014-Dec-13 04:32N 52°16' W 007°02'0 0.0
2014-Dec-13 03:29N 52°16' W 007°02'0 0.0
2014-Dec-13 02:32N 52°16' W 007°02'0 0.0
2014-Dec-13 01:32N 52°16' W 007°02'0 0.0
2014-Dec-13 00:32N 52°16' W 007°02'0 0.0
2014-Dec-12 23:32N 52°16' W 007°02'0 0.0
2014-Dec-12 22:32N 52°16' W 007°02'0 0.0
2014-Dec-12 21:32N 52°16' W 007°02'0 0.0
2014-Dec-12 20:32N 52°16' W 007°02'0 0.0
2014-Dec-12 19:32N 52°16' W 007°02'0 0.0
2014-Dec-12 18:32N 52°16' W 007°02'0 0.0
2014-Dec-12 17:32N 52°16' W 007°02'0 0.0
2014-Dec-12 16:32N 52°16' W 007°02'0 0.0
2014-Dec-12 15:32N 52°16' W 007°02'0 0.0
2014-Dec-12 14:32N 52°16' W 007°02'0 0.0
2014-Dec-12 13:34N 52°16' W 007°02'3 2.7
2014-Dec-12 12:34N 52°15' W 006°58'5 5.5
2014-Dec-12 11:33N 52°09' W 006°58'0 0.0
2014-Dec-12 10:33N 52°09' W 006°58'0 0.4
2014-Dec-12 09:33N 52°09' W 006°58'1111.1
2014-Dec-12 08:33N 51°58' W 007°02'1212.1
2014-Dec-12 07:33N 51°46' W 007°06'1010.5
2014-Dec-12 06:33N 51°36' W 007°09'  

Dump ship's entire track history